createdAt,value
2018-06-25T00:00:40.374Z,100211.61
2018-06-25T00:03:08.052Z,100211.47
2018-06-25T00:05:35.710Z,100216.89
2018-06-25T00:08:03.342Z,100213.81
2018-06-25T00:10:32.094Z,100216.17
2018-06-25T00:12:59.724Z,100213.39
2018-06-25T00:15:27.405Z,100211.98
2018-06-25T00:17:55.080Z,100199.36
2018-06-25T00:20:22.779Z,100198.53
2018-06-25T00:22:50.412Z,100197.97
2018-06-25T00:25:18.136Z,100207.03
2018-06-25T00:27:45.851Z,100199.36
2018-06-25T00:30:13.487Z,100202.36
2018-06-25T00:32:41.149Z,100198.47
2018-06-25T00:35:08.825Z,100195.25
2018-06-25T00:37:36.460Z,100190.61
2018-06-25T00:40:04.158Z,100197.48
2018-06-25T00:42:31.815Z,100192.08
2018-06-25T00:44:59.510Z,100194.41
2018-06-25T00:47:27.174Z,100191.69
2018-06-25T00:49:54.814Z,100189.38
2018-06-25T00:52:22.410Z,100187.42
2018-06-25T00:54:50.047Z,100188.34
2018-06-25T00:57:17.692Z,100186.19
2018-06-25T00:59:55.273Z,100186.50
2018-06-25T01:02:23.336Z,100190.18
2018-06-25T01:04:51.003Z,100190.63
2018-06-25T01:07:19.098Z,100193.26
2018-06-25T01:09:46.902Z,100192.22
2018-06-25T01:12:14.695Z,100186.98
2018-06-25T01:14:42.901Z,100191.81
2018-06-25T01:17:10.705Z,100193.50
2018-06-25T01:19:38.363Z,100188.06
2018-06-25T01:22:07.151Z,100188.06
2018-06-25T01:24:35.258Z,100195.80
2018-06-25T01:27:02.977Z,100193.73
2018-06-25T01:29:30.735Z,100186.70
2018-06-25T01:31:58.358Z,100189.38
2018-06-25T01:34:26.019Z,100191.73
2018-06-25T01:36:53.711Z,100189.55
2018-06-25T01:39:21.343Z,100191.06
2018-06-25T01:41:48.948Z,100193.05
2018-06-25T01:44:16.642Z,100192.61
2018-06-25T01:46:44.289Z,100196.69
2018-06-25T01:49:12.943Z,100199.57
2018-06-25T01:51:40.619Z,100202.19
2018-06-25T01:54:08.313Z,100194.17
2018-06-25T01:56:35.997Z,100195.69
2018-06-25T01:59:03.654Z,100194.62
2018-06-25T02:01:31.269Z,100193.62
2018-06-25T02:03:58.940Z,100198.01
2018-06-25T02:06:26.683Z,100191.54
2018-06-25T02:08:54.378Z,100200.29
2018-06-25T02:11:22.168Z,100195.52
2018-06-25T02:13:49.840Z,100195.33
2018-06-25T02:16:17.452Z,100199.04
2018-06-25T02:18:45.118Z,100193.45
2018-06-25T02:21:12.780Z,100196.63
2018-06-25T02:23:40.452Z,100196.20
2018-06-25T02:26:08.108Z,100199.43
2018-06-25T02:28:35.752Z,100198.47
2018-06-25T02:31:03.459Z,100197.35
2018-06-25T02:33:31.093Z,100199.16
2018-06-25T02:35:58.654Z,100203.88
2018-06-25T02:38:26.315Z,100204.57
2018-06-25T02:40:53.926Z,100206.03
2018-06-25T02:43:21.526Z,100210.18
2018-06-25T02:45:49.172Z,100208.94
2018-06-25T02:48:16.825Z,100214.22
2018-06-25T02:50:44.459Z,100211.45
2018-06-25T02:53:12.151Z,100217.23
2018-06-25T02:55:39.823Z,100212.09
2018-06-25T02:58:07.480Z,100218.39
2018-06-25T03:00:35.144Z,100220.36
2018-06-25T03:03:02.805Z,100216.73
2018-06-25T03:05:30.533Z,100198.31
2018-06-25T03:07:58.199Z,100207.14
2018-06-25T03:10:25.903Z,100204.02
2018-06-25T03:12:53.558Z,100206.72
2018-06-25T03:15:21.194Z,100209.87
2018-06-25T03:17:48.774Z,100210.19
2018-06-25T03:20:16.418Z,100205.75
2018-06-25T03:22:44.039Z,100210.48
2018-06-25T03:25:11.680Z,100214.16
2018-06-25T03:27:39.391Z,100219.11
2018-06-25T03:30:07.076Z,100218.83
2018-06-25T03:32:34.753Z,100214.77
2018-06-25T03:35:02.442Z,100204.59
2018-06-25T03:37:30.053Z,100203.66
2018-06-25T03:42:32.145Z,100217.21
2018-06-25T03:44:59.784Z,100208.27
2018-06-25T03:47:27.411Z,100208.49
2018-06-25T03:49:55.162Z,100215.41
2018-06-25T03:52:22.814Z,100220.27
2018-06-25T03:54:50.509Z,100222.47
2018-06-25T03:57:18.158Z,100219.19
2018-06-25T03:59:45.838Z,100231.48
2018-06-25T04:02:13.519Z,100233.89
2018-06-25T04:04:41.116Z,100234.25
2018-06-25T04:07:08.793Z,100240.29
2018-06-25T04:09:36.373Z,100240.39
2018-06-25T04:12:04.044Z,100250.91
2018-06-25T04:14:31.653Z,100256.60
2018-06-25T04:16:59.341Z,100261.31
2018-06-25T04:19:27.008Z,100266.88
2018-06-25T04:21:54.671Z,100262.69
2018-06-25T04:24:22.302Z,100257.64
2018-06-25T04:26:49.923Z,100258.30
2018-06-25T04:29:17.594Z,100267.34
2018-06-25T04:31:45.261Z,100264.14
2018-06-25T04:34:13.012Z,100264.63
2018-06-25T04:36:40.721Z,100266.21
2018-06-25T04:39:09.306Z,100274.39
2018-06-25T04:41:36.920Z,100272.23
2018-06-25T04:44:04.644Z,100272.36
2018-06-25T04:46:32.444Z,100274.35
2018-06-25T04:49:01.194Z,100269.89
2018-06-25T04:51:28.941Z,100282.20
2018-06-25T04:53:56.560Z,100287.64
2018-06-25T04:56:24.206Z,100285.07
2018-06-25T04:58:51.878Z,100296.70
2018-06-25T05:01:19.688Z,100293.38
2018-06-25T05:03:47.300Z,100299.09
2018-06-25T05:06:14.942Z,100297.66
2018-06-25T05:08:42.722Z,100295.50
2018-06-25T05:11:10.351Z,100298.99
2018-06-25T05:13:38.057Z,100303.97
2018-06-25T05:16:05.967Z,100307.09
2018-06-25T05:18:33.689Z,100307.53
2018-06-25T05:21:01.397Z,100306.35
2018-06-25T05:23:29.169Z,100311.07
2018-06-25T05:25:56.845Z,100305.06
2018-06-25T05:28:24.837Z,100306.70
2018-06-25T05:30:52.667Z,100307.15
2018-06-25T05:33:20.366Z,100306.97
2018-06-25T05:35:48.114Z,100312.78
2018-06-25T05:38:15.818Z,100320.12
2018-06-25T05:40:43.536Z,100316.14
2018-06-25T05:43:11.284Z,100326.19
2018-06-25T05:45:38.962Z,100328.92
2018-06-25T05:48:06.748Z,100326.34
2018-06-25T05:50:34.540Z,100325.49
2018-06-25T05:53:02.226Z,100329.73
2018-06-25T05:55:29.899Z,100327.63
2018-06-25T05:57:57.661Z,100333.32
2018-06-25T06:00:25.328Z,100336.13
2018-06-25T06:02:52.958Z,100337.30
2018-06-25T06:05:20.599Z,100338.11
2018-06-25T06:07:48.265Z,100336.77
2018-06-25T06:10:16.097Z,100337.27
2018-06-25T06:12:43.807Z,100336.47
2018-06-25T06:15:11.525Z,100337.41
2018-06-25T06:17:39.271Z,100333.98
2018-06-25T06:20:07.037Z,100342.04
2018-06-25T06:22:35.045Z,100343.55
2018-06-25T06:25:02.744Z,100349.16
2018-06-25T06:27:30.644Z,100353.17
2018-06-25T06:29:58.706Z,100355.13
2018-06-25T06:32:26.443Z,100353.78
2018-06-25T06:34:54.348Z,100361.73
2018-06-25T06:37:22.075Z,100358.06
2018-06-25T06:39:49.796Z,100362.97
2018-06-25T06:42:17.390Z,100356.27
2018-06-25T06:44:45.067Z,100353.80
2018-06-25T06:47:12.773Z,100355.09
2018-06-25T06:49:40.468Z,100355.55
2018-06-25T06:52:08.195Z,100348.52
2018-06-25T06:54:35.904Z,100347.52
2018-06-25T06:57:03.703Z,100349.03
2018-06-25T06:59:31.369Z,100348.13
2018-06-25T07:01:59.054Z,100349.78
2018-06-25T07:04:26.706Z,100347.65
2018-06-25T07:06:54.370Z,100355.16
2018-06-25T07:09:22.130Z,100345.91
2018-06-25T07:11:49.764Z,100346.83
2018-06-25T07:14:17.533Z,100356.11
2018-06-25T07:16:45.222Z,100348.91
2018-06-25T07:19:12.986Z,100349.78
2018-06-25T07:21:40.780Z,100356.84
2018-06-25T07:24:08.571Z,100354.69
2018-06-25T07:26:36.288Z,100356.48
2018-06-25T07:29:04.045Z,100354.77
2018-06-25T07:31:31.815Z,100359.61
2018-06-25T07:33:59.450Z,100353.04
2018-06-25T07:36:27.203Z,100346.17
2018-06-25T07:38:54.901Z,100343.94
2018-06-25T07:41:22.579Z,100344.39
2018-06-25T07:43:50.305Z,100343.84
2018-06-25T07:46:18.133Z,100346.63
2018-06-25T07:48:45.959Z,100348.28
2018-06-25T07:51:13.659Z,100345.57
2018-06-25T07:53:41.484Z,100349.92
2018-06-25T07:56:09.109Z,100346.13
2018-06-25T07:58:36.767Z,100354.27
2018-06-25T08:01:04.569Z,100349.77
2018-06-25T08:03:32.216Z,100355.48
2018-06-25T08:06:00.085Z,100353.59
2018-06-25T08:08:27.725Z,100356.41
2018-06-25T08:10:55.422Z,100373.70
2018-06-25T08:13:23.200Z,100363.63
2018-06-25T08:15:50.850Z,100364.77
2018-06-25T08:18:18.625Z,100363.10
2018-06-25T08:20:46.274Z,100363.31
2018-06-25T08:23:14.060Z,100370.94
2018-06-25T08:25:41.800Z,100375.98
2018-06-25T08:28:09.519Z,100382.40
2018-06-25T08:30:37.201Z,100384.96
2018-06-25T08:33:04.962Z,100386.83
2018-06-25T08:35:32.649Z,100386.42
2018-06-25T08:38:00.351Z,100391.68
2018-06-25T08:40:28.065Z,100391.47
2018-06-25T08:42:55.775Z,100392.95
2018-06-25T08:45:23.541Z,100392.75
2018-06-25T08:47:51.175Z,100403.70
2018-06-25T08:50:18.928Z,100402.17
2018-06-25T08:52:46.573Z,100399.92
2018-06-25T08:55:14.972Z,100407.95
2018-06-25T08:57:42.582Z,100408.28
2018-06-25T09:00:10.277Z,100407.59
2018-06-25T09:02:37.998Z,100407.19
2018-06-25T09:05:05.687Z,100404.59
2018-06-25T09:07:33.329Z,100404.98
2018-06-25T09:10:01.031Z,100412.52
2018-06-25T09:12:28.739Z,100414.52
2018-06-25T09:14:56.444Z,100418.25
2018-06-25T09:17:24.167Z,100424.78
2018-06-25T09:19:51.938Z,100425.96
2018-06-25T09:22:19.704Z,100430.32
2018-06-25T09:24:47.432Z,100435.03
2018-06-25T09:27:15.136Z,100424.88
2018-06-25T09:29:42.842Z,100442.16
2018-06-25T09:32:10.516Z,100439.08
2018-06-25T09:34:44.011Z,100440.64
2018-06-25T09:37:11.721Z,100445.65
2018-06-25T09:39:39.603Z,100444.39
2018-06-25T09:42:07.393Z,100446.80
2018-06-25T09:44:35.164Z,100451.59
2018-06-25T09:47:03.100Z,100454.30
2018-06-25T09:49:30.780Z,100452.56
2018-06-25T09:51:58.471Z,100460.23
2018-06-25T09:54:26.234Z,100461.76
2018-06-25T09:56:53.984Z,100464.97
2018-06-25T09:59:21.684Z,100462.85
2018-06-25T10:01:49.513Z,100459.99
2018-06-25T10:04:17.516Z,100462.63
2018-06-25T10:06:45.173Z,100453.84
2018-06-25T10:09:12.910Z,100463.52
2018-06-25T10:11:40.913Z,100461.70
2018-06-25T10:14:08.545Z,100464.55
2018-06-25T10:16:36.233Z,100465.32
2018-06-25T10:19:04.586Z,100471.49
2018-06-25T10:21:32.310Z,100466.77
2018-06-25T10:24:00.163Z,100475.90
2018-06-25T10:26:27.955Z,100478.11
2018-06-25T10:28:55.726Z,100473.53
2018-06-25T10:31:23.472Z,100475.17
2018-06-25T10:33:51.184Z,100471.64
2018-06-25T10:36:19.613Z,100474.55
2018-06-25T10:38:47.263Z,100471.76
2018-06-25T10:41:15.005Z,100461.89
2018-06-25T10:43:42.774Z,100473.64
2018-06-25T10:46:10.516Z,100474.50
2018-06-25T10:48:38.254Z,100463.78
2018-06-25T10:51:06.031Z,100461.84
2018-06-25T10:53:33.748Z,100472.53
2018-06-25T10:56:01.436Z,100472.14
2018-06-25T10:58:29.207Z,100465.66
2018-06-25T11:00:56.966Z,100462.90
2018-06-25T11:03:24.668Z,100454.52
2018-06-25T11:05:52.474Z,100455.77
2018-06-25T11:08:20.342Z,100457.02
2018-06-25T11:10:48.012Z,100444.51
2018-06-25T11:13:15.758Z,100448.86
2018-06-25T11:15:43.414Z,100452.12
2018-06-25T11:18:11.181Z,100441.70
2018-06-25T11:20:38.881Z,100444.39
2018-06-25T11:23:06.585Z,100448.34
2018-06-25T11:25:34.246Z,100446.94
2018-06-25T11:28:01.923Z,100443.52
2018-06-25T11:30:29.649Z,100446.80
2018-06-25T11:33:01.862Z,100442.08
2018-06-25T11:35:29.595Z,100440.72
2018-06-25T11:37:57.252Z,100443.27
2018-06-25T11:40:24.978Z,100443.23
2018-06-25T11:42:52.673Z,100448.73
2018-06-25T11:45:20.438Z,100441.24
2018-06-25T11:47:48.237Z,100446.28
2018-06-25T11:50:18.937Z,100430.94
2018-06-25T11:52:49.147Z,100426.16
2018-06-25T11:55:20.710Z,100424.84
2018-06-25T11:57:48.412Z,100423.33
2018-06-25T12:00:16.109Z,100417.95
2018-06-25T12:02:44.025Z,100420.06
2018-06-25T12:05:11.583Z,100422.98
2018-06-25T12:07:40.946Z,100419.98
2018-06-25T12:10:08.640Z,100414.30
2018-06-25T12:12:36.544Z,100419.87
2018-06-25T12:15:04.654Z,100416.97
2018-06-25T12:17:34.254Z,100411.72
2018-06-25T12:20:01.934Z,100410.09
2018-06-25T12:22:29.582Z,100416.76
2018-06-25T12:24:57.382Z,100415.16
2018-06-25T12:27:25.111Z,100418.04
2018-06-25T12:29:52.844Z,100406.30
2018-06-25T12:32:20.684Z,100408.47
2018-06-25T12:34:48.604Z,100407.97
2018-06-25T12:37:16.315Z,100403.75
2018-06-25T12:39:43.994Z,100404.66
2018-06-25T12:42:11.915Z,100405.73
2018-06-25T12:44:39.625Z,100395.35
2018-06-25T12:47:07.265Z,100402.75
2018-06-25T12:49:34.947Z,100409.51
2018-06-25T12:52:02.615Z,100395.38
2018-06-25T12:54:30.525Z,100389.16
2018-06-25T12:56:58.239Z,100391.12
2018-06-25T12:59:25.936Z,100388.43
2018-06-25T13:01:53.735Z,100382.06
2018-06-25T13:04:21.595Z,100377.66
2018-06-25T13:06:49.371Z,100384.58
2018-06-25T13:09:17.072Z,100381.27
2018-06-25T13:11:44.899Z,100380.64
2018-06-25T13:14:12.606Z,100395.80
2018-06-25T13:16:40.326Z,100384.00
2018-06-25T13:19:07.984Z,100386.55
2018-06-25T13:21:35.644Z,100398.91
2018-06-25T13:24:03.358Z,100394.19
2018-06-25T13:26:32.928Z,100402.20
2018-06-25T13:29:00.684Z,100407.95
2018-06-25T13:31:28.400Z,100401.00
2018-06-25T13:33:56.142Z,100396.57
2018-06-25T13:36:23.910Z,100380.41
2018-06-25T13:38:58.365Z,100375.70
2018-06-25T13:41:26.218Z,100381.30
2018-06-25T13:43:54.012Z,100383.86
2018-06-25T13:46:21.839Z,100382.33
2018-06-25T13:48:49.711Z,100384.23
2018-06-25T13:51:17.737Z,100384.34
2018-06-25T13:53:45.543Z,100387.50
2018-06-25T13:56:13.310Z,100393.59
2018-06-25T13:58:41.028Z,100394.38
2018-06-25T14:01:08.838Z,100389.06
2018-06-25T14:03:36.499Z,100395.88
2018-06-25T14:06:04.358Z,100392.03
2018-06-25T14:08:32.160Z,100391.02
2018-06-25T14:10:59.954Z,100387.09
2018-06-25T14:13:27.969Z,100393.39
2018-06-25T14:15:55.786Z,100389.66
2018-06-25T14:18:23.542Z,100388.40
2018-06-25T14:20:51.422Z,100390.17
2018-06-25T14:23:19.180Z,100392.71
2018-06-25T14:25:52.524Z,100373.53
2018-06-25T14:28:25.967Z,100365.14
2018-06-25T14:30:59.461Z,100362.23
2018-06-25T14:33:33.101Z,100361.91
2018-06-25T14:36:00.790Z,100363.34
2018-06-25T14:38:28.515Z,100368.77
2018-06-25T14:40:56.228Z,100385.25
2018-06-25T14:43:24.076Z,100382.20
2018-06-25T14:45:51.781Z,100379.52
2018-06-25T14:48:19.521Z,100376.55
2018-06-25T14:50:47.212Z,100393.09
2018-06-25T14:53:14.936Z,100394.14
2018-06-25T14:55:42.703Z,100390.76
2018-06-25T14:58:10.447Z,100390.25
2018-06-25T15:00:38.134Z,100389.53
2018-06-25T15:03:05.931Z,100391.26
2018-06-25T15:05:33.799Z,100385.81
2018-06-25T15:08:01.444Z,100393.20
2018-06-25T15:10:29.222Z,100384.27
2018-06-25T15:12:57.172Z,100386.83
2018-06-25T15:15:24.889Z,100384.38
2018-06-25T15:17:52.580Z,100376.26
2018-06-25T15:20:20.332Z,100371.89
2018-06-25T15:22:47.990Z,100368.45
2018-06-25T15:25:15.677Z,100363.22
2018-06-25T15:27:43.347Z,100362.28
2018-06-25T15:30:11.119Z,100369.78
2018-06-25T15:32:38.936Z,100363.13
2018-06-25T15:35:06.736Z,100360.36
2018-06-25T15:37:34.411Z,100359.63
2018-06-25T15:40:02.124Z,100354.49
2018-06-25T15:42:29.864Z,100356.59
2018-06-25T15:44:57.517Z,100360.09
2018-06-25T15:47:25.302Z,100354.91
2018-06-25T15:49:53.038Z,100347.31
2018-06-25T15:52:21.126Z,100346.21
2018-06-25T15:54:48.810Z,100348.21
2018-06-25T15:57:16.552Z,100348.45
2018-06-25T15:59:44.394Z,100347.80
2018-06-25T16:02:12.171Z,100345.73
2018-06-25T16:04:39.974Z,100344.39
2018-06-25T16:07:07.794Z,100348.91
2018-06-25T16:09:35.479Z,100349.55
2018-06-25T16:12:03.192Z,100346.65
2018-06-25T16:14:30.959Z,100346.64
2018-06-25T16:16:58.693Z,100343.34
2018-06-25T16:19:26.512Z,100341.08
2018-06-25T16:21:54.218Z,100335.41
2018-06-25T16:24:22.300Z,100333.20
2018-06-25T16:26:50.056Z,100336.43
2018-06-25T16:29:17.723Z,100338.77
2018-06-25T16:31:45.493Z,100341.04
2018-06-25T16:34:13.341Z,100364.53
2018-06-25T16:36:40.986Z,100341.80
2018-06-25T16:39:10.702Z,100335.11
2018-06-25T16:41:38.540Z,100337.09
2018-06-25T16:44:06.380Z,100342.50
2018-06-25T16:46:34.144Z,100336.14
2018-06-25T16:49:01.906Z,100327.98
2018-06-25T16:51:29.977Z,100325.11
2018-06-25T16:53:57.676Z,100332.55
2018-06-25T16:56:25.678Z,100332.75
2018-06-25T16:58:53.439Z,100335.92
2018-06-25T17:01:21.239Z,100335.41
2018-06-25T17:03:49.173Z,100335.05
2018-06-25T17:06:17.126Z,100334.17
2018-06-25T17:08:45.048Z,100335.01
2018-06-25T17:11:13.046Z,100334.66
2018-06-25T17:13:40.887Z,100340.12
2018-06-25T17:16:08.814Z,100341.75
2018-06-25T17:18:36.850Z,100336.24
2018-06-25T17:21:04.709Z,100340.64
2018-06-25T17:23:32.915Z,100343.12
2018-06-25T17:26:01.009Z,100348.24
2018-06-25T17:28:28.742Z,100350.38
2018-06-25T17:30:56.749Z,100350.66
2018-06-25T17:33:24.408Z,100343.38
2018-06-25T17:35:52.130Z,100343.65
2018-06-25T17:38:19.971Z,100346.86
2018-06-25T17:40:48.966Z,100338.56
2018-06-25T17:43:16.669Z,100345.81
2018-06-25T17:45:44.284Z,100346.55
2018-06-25T17:48:12.011Z,100340.95
2018-06-25T17:50:39.680Z,100351.02
2018-06-25T17:53:07.358Z,100341.50
2018-06-25T17:55:34.960Z,100339.44
2018-06-25T17:58:02.706Z,100340.03
2018-06-25T18:00:30.328Z,100336.57
2018-06-25T18:02:58.090Z,100331.67
2018-06-25T18:05:25.753Z,100331.16
2018-06-25T18:07:53.564Z,100331.87
2018-06-25T18:10:21.321Z,100327.90
2018-06-25T18:12:49.001Z,100322.60
2018-06-25T18:15:16.705Z,100328.22
2018-06-25T18:17:44.389Z,100325.85
2018-06-25T18:20:12.125Z,100329.30
2018-06-25T18:22:39.808Z,100333.62
2018-06-25T18:25:07.543Z,100326.92
2018-06-25T18:27:36.341Z,100332.99
2018-06-25T18:30:04.995Z,100337.00
2018-06-25T18:32:32.674Z,100333.16
2018-06-25T18:35:00.583Z,100331.09
2018-06-25T18:37:28.259Z,100334.67
2018-06-25T18:39:56.074Z,100330.93
2018-06-25T18:42:23.894Z,100330.14
2018-06-25T18:44:51.736Z,100338.63
2018-06-25T18:47:19.386Z,100335.32
2018-06-25T18:49:47.034Z,100336.66
2018-06-25T18:52:14.709Z,100342.63
2018-06-25T18:54:42.293Z,100341.78
2018-06-25T18:57:10.002Z,100347.02
2018-06-25T18:59:37.670Z,100339.69
2018-06-25T19:02:05.327Z,100336.16
2018-06-25T19:04:32.981Z,100340.59
2018-06-25T19:07:00.918Z,100343.70
2018-06-25T19:09:28.629Z,100349.00
2018-06-25T19:11:56.405Z,100350.14
2018-06-25T19:14:24.494Z,100349.11
2018-06-25T19:16:52.632Z,100350.08
2018-06-25T19:19:20.681Z,100350.00
2018-06-25T19:21:48.813Z,100359.92
2018-06-25T19:24:16.633Z,100351.38
2018-06-25T19:26:45.099Z,100355.16
2018-06-25T19:29:12.809Z,100363.09
2018-06-25T19:31:40.818Z,100356.31
2018-06-25T19:34:08.514Z,100357.12
2018-06-25T19:36:36.256Z,100363.54
2018-06-25T19:39:09.482Z,100367.50
2018-06-25T19:41:37.500Z,100379.04
2018-06-25T19:44:05.851Z,100377.58
2018-06-25T19:46:33.590Z,100379.97
2018-06-25T19:49:01.302Z,100380.55
2018-06-25T19:51:28.966Z,100377.54
2018-06-25T19:53:56.569Z,100386.06
2018-06-25T19:56:24.199Z,100387.04
2018-06-25T19:58:52.165Z,100391.41
2018-06-25T20:01:19.894Z,100390.92
2018-06-25T20:03:47.579Z,100398.38
2018-06-25T20:06:15.472Z,100400.54
2018-06-25T20:08:43.221Z,100403.69
2018-06-25T20:11:11.169Z,100401.37
2018-06-25T20:13:39.157Z,100399.48
2018-06-25T20:16:06.851Z,100401.92
2018-06-25T20:18:36.306Z,100399.00
2018-06-25T20:21:04.705Z,100412.36
2018-06-25T20:23:32.387Z,100413.91
2018-06-25T20:26:00.220Z,100416.11
2018-06-25T20:28:27.807Z,100422.67
2018-06-25T20:30:55.393Z,100422.91
2018-06-25T20:33:23.139Z,100423.98
2018-06-25T20:35:50.817Z,100420.70
2018-06-25T20:38:18.541Z,100422.23
2018-06-25T20:40:46.233Z,100422.70
2018-06-25T20:43:13.909Z,100419.66
2018-06-25T20:45:41.582Z,100403.41
2018-06-25T20:48:09.287Z,100419.36
2018-06-25T20:50:36.893Z,100416.27
2018-06-25T20:53:04.589Z,100414.16
2018-06-25T20:55:32.242Z,100425.48
2018-06-25T20:57:59.884Z,100422.44
2018-06-25T21:00:27.602Z,100425.76
2018-06-25T21:02:55.302Z,100429.23
2018-06-25T21:05:22.996Z,100429.94
2018-06-25T21:07:50.696Z,100429.56
2018-06-25T21:10:18.474Z,100429.94
2018-06-25T21:12:46.217Z,100437.54
2018-06-25T21:15:13.834Z,100434.44
2018-06-25T21:17:41.507Z,100439.91
2018-06-25T21:20:09.171Z,100440.48
2018-06-25T21:22:36.757Z,100441.75
2018-06-25T21:25:05.109Z,100441.69
2018-06-25T21:27:32.841Z,100453.09
2018-06-25T21:30:00.500Z,100451.59
2018-06-25T21:32:28.118Z,100453.98
2018-06-25T21:34:55.731Z,100457.52
2018-06-25T21:37:23.358Z,100454.14
2018-06-25T21:39:51.006Z,100462.72
2018-06-25T21:42:18.662Z,100460.77
2018-06-25T21:44:46.342Z,100459.74
2018-06-25T21:47:13.954Z,100461.13
2018-06-25T21:49:41.642Z,100461.05
2018-06-25T21:52:09.294Z,100458.00
2018-06-25T21:54:36.954Z,100466.73
2018-06-25T21:57:04.614Z,100466.77
2018-06-25T21:59:32.242Z,100469.25
2018-06-25T22:01:59.898Z,100466.80
2018-06-25T22:04:27.669Z,100464.02
2018-06-25T22:06:55.472Z,100465.09
2018-06-25T22:09:23.126Z,100465.69
2018-06-25T22:11:50.786Z,100473.05
2018-06-25T22:14:18.599Z,100473.74
2018-06-25T22:16:46.245Z,100474.48
2018-06-25T22:19:13.829Z,100472.29
2018-06-25T22:21:41.719Z,100484.36
2018-06-25T22:24:09.413Z,100480.84
2018-06-25T22:26:37.040Z,100481.23
2018-06-25T22:29:05.109Z,100480.00
2018-06-25T22:31:32.755Z,100486.63
2018-06-25T22:34:00.405Z,100486.47
2018-06-25T22:36:28.052Z,100487.99
2018-06-25T22:38:55.668Z,100485.92
2018-06-25T22:41:23.279Z,100486.42
2018-06-25T22:43:50.932Z,100488.91
2018-06-25T22:46:18.592Z,100481.71
2018-06-25T22:48:46.228Z,100480.31
2018-06-25T22:51:13.913Z,100483.80
2018-06-25T22:53:41.514Z,100478.36
2018-06-25T22:56:09.092Z,100488.44
2018-06-25T22:58:36.706Z,100486.98
2018-06-25T23:01:04.542Z,100484.73
2018-06-25T23:03:32.155Z,100470.82
2018-06-25T23:05:59.774Z,100481.81
2018-06-25T23:08:27.437Z,100479.33
2018-06-25T23:10:55.090Z,100483.57
2018-06-25T23:13:22.729Z,100478.16
2018-06-25T23:15:50.425Z,100484.54
2018-06-25T23:18:18.069Z,100480.77
2018-06-25T23:20:45.690Z,100492.09
2018-06-25T23:23:13.346Z,100486.34
2018-06-25T23:25:40.959Z,100485.44
2018-06-25T23:28:08.697Z,100486.49
2018-06-25T23:30:36.250Z,100496.33
2018-06-25T23:33:03.822Z,100490.95
2018-06-25T23:35:31.419Z,100486.36
2018-06-25T23:37:58.959Z,100497.49
2018-06-25T23:40:26.576Z,100486.98
2018-06-25T23:42:54.221Z,100491.52
2018-06-25T23:45:21.798Z,100493.66
2018-06-25T23:47:49.424Z,100491.31
2018-06-25T23:50:17.062Z,100494.89
2018-06-25T23:52:44.726Z,100494.55
2018-06-25T23:55:12.347Z,100495.42
2018-06-25T23:57:39.924Z,100492.03
